Time;durP1;ratioP1;P1;durP2;ratioP2;P2;SDS_P1;SDS_P2;PMS_P1;PMS_P2;Temp;Humidity;BMP_temperature;BMP_pressure;BME280_temperature;BME280_humidity;BME280_pressure;Samples;Min_cycle;Max_cycle;Signal;HPM_P1;HPM_P2
2022/04/14 00:01:54;;;;;;;33.55;18.10;;;9.50;99.90;;;8.36;81.75;101283.94;4982235;28;20022;-75
2022/04/14 00:04:20;;;;;;;31.17;19.00;;;9.50;99.90;;;8.37;81.18;101292.69;4997819;28;20478;-75
2022/04/14 00:06:46;;;;;;;24.80;14.25;;;9.50;99.90;;;8.28;81.04;101293.78;4983095;28;20678;-75
2022/04/14 00:09:12;;;;;;;35.40;18.05;;;9.40;99.90;;;8.22;81.45;101309.69;4989192;28;20041;-76
2022/04/14 00:11:38;;;;;;;23.45;13.82;;;9.40;99.90;;;8.07;82.23;101307.50;5010722;28;20493;-76
2022/04/14 00:14:06;;;;;;;26.65;14.98;;;9.30;99.90;;;7.97;81.91;101299.88;4979775;28;20022;-75
2022/04/14 00:16:33;;;;;;;26.17;15.25;;;9.20;99.90;;;7.92;81.24;101293.88;4999828;28;20022;-75
2022/04/14 00:18:59;;;;;;;36.08;20.10;;;9.20;99.90;;;7.85;83.99;101302.81;4983475;28;20124;-76
2022/04/14 00:21:25;;;;;;;35.63;19.92;;;9.10;99.90;;;7.84;86.98;101301.13;4982251;28;20201;-76
2022/04/14 00:23:51;;;;;;;33.90;20.05;;;9.10;99.90;;;7.89;88.34;101301.84;4980267;28;20025;-75
2022/04/14 00:26:17;;;;;;;36.33;19.13;;;9.20;99.90;;;8.00;89.77;101294.53;5002029;28;20403;-76
2022/04/14 00:28:43;;;;;;;36.42;20.65;;;9.30;99.90;;;8.12;91.00;101292.50;4986022;28;20033;-75
2022/04/14 00:31:09;;;;;;;36.67;20.35;;;9.40;99.90;;;8.25;91.59;101295.63;5003401;28;20725;-76
2022/04/14 00:33:35;;;;;;;37.53;20.95;;;9.50;99.90;;;8.39;91.45;101304.84;5002672;28;20030;-75
2022/04/14 00:36:00;;;;;;;36.33;20.20;;;9.60;99.90;;;8.51;91.45;101294.94;5000322;28;20672;-76
2022/04/14 00:38:27;;;;;;;48.65;21.80;;;9.70;99.90;;;8.63;92.14;101308.56;4995194;28;20060;-75
2022/04/14 00:40:55;;;;;;;49.85;21.42;;;9.80;99.90;;;8.79;93.75;101308.97;4985042;28;20414;-75
2022/04/14 00:43:29;;;;;;;47.60;21.90;;;10.00;99.90;;;9.00;96.18;101310.06;5001927;28;20057;-76
2022/04/14 00:45:55;;;;;;;48.80;23.65;;;10.20;99.90;;;9.17;98.93;101317.44;5002719;28;20515;-76
2022/04/14 00:48:21;;;;;;;48.65;23.23;;;10.40;99.90;;;9.32;100.00;101320.50;4985772;28;20042;-76
2022/04/14 00:50:48;;;;;;;42.20;20.15;;;10.60;99.90;;;9.48;100.00;101334.00;4987039;28;20030;-76
2022/04/14 00:53:14;;;;;;;54.38;22.75;;;10.70;99.90;;;9.63;100.00;101342.28;5000959;28;20103;-76
2022/04/14 00:55:40;;;;;;;55.08;24.90;;;10.80;99.90;;;9.77;100.00;101352.31;5011211;28;20083;-75
2022/04/14 00:58:06;;;;;;;44.15;22.45;;;11.00;99.90;;;9.89;100.00;101340.50;4989974;28;20117;-76
2022/04/14 01:00:32;;;;;;;47.30;22.67;;;11.10;99.90;;;9.98;100.00;101337.59;5005322;28;20025;-75
2022/04/14 01:03:00;;;;;;;43.38;22.25;;;11.10;99.90;;;10.05;100.00;101346.97;5000491;28;20115;-75
2022/04/14 01:07:52;;;;;;;44.20;23.23;;;11.30;99.90;;;10.14;100.00;101348.44;4986609;28;20034;-76
2022/04/14 01:10:18;;;;;;;49.30;23.17;;;11.30;99.90;;;10.18;100.00;101359.72;5001732;28;20045;-76
2022/04/14 01:12:44;;;;;;;46.40;24.20;;;11.40;99.90;;;10.20;100.00;101360.53;5000606;28;20026;-77
2022/04/14 01:15:15;;;;;;;52.05;23.25;;;11.40;99.90;;;10.20;100.00;101371.06;5001820;28;20032;-77
2022/04/14 01:17:41;;;;;;;55.13;24.58;;;11.40;99.90;;;10.21;100.00;101364.88;4983281;28;20113;-76
2022/04/14 01:20:11;;;;;;;48.55;24.35;;;11.40;99.90;;;10.22;100.00;101358.72;4985390;28;20026;-77
2022/04/14 01:22:57;;;;;;;53.22;25.98;;;11.40;99.90;;;10.26;100.00;101352.44;4985611;28;20034;-76
2022/04/14 01:25:25;;;;;;;51.42;23.75;;;11.50;99.90;;;10.27;100.00;101354.13;4975459;28;20470;-76
2022/04/14 01:27:52;;;;;;;49.85;25.58;;;11.50;99.90;;;10.32;100.00;101359.25;5003214;28;20041;-76
2022/04/14 01:30:19;;;;;;;46.63;22.35;;;11.50;99.90;;;10.34;100.00;101368.81;4985368;28;20042;-76
2022/04/14 01:32:45;;;;;;;49.25;25.00;;;11.50;99.90;;;10.38;100.00;101380.97;5001593;28;20541;-77
2022/04/14 01:35:11;;;;;;;47.40;26.05;;;11.60;99.90;;;10.43;100.00;101384.31;4967374;28;20080;-76
2022/04/14 01:37:37;;;;;;;48.75;25.48;;;11.60;99.90;;;10.44;100.00;101391.28;4998609;28;20089;-76
2022/04/14 01:40:05;;;;;;;49.92;26.50;;;11.70;99.90;;;10.50;100.00;101392.00;4967576;28;20168;-76
2022/04/14 01:42:31;;;;;;;56.05;25.55;;;11.70;99.90;;;10.55;100.00;101405.84;4983898;28;20520;-76
2022/04/14 01:44:57;;;;;;;47.42;25.52;;;11.70;99.90;;;10.58;100.00;101405.72;4984807;28;20026;-76
2022/04/14 01:47:23;;;;;;;55.03;25.52;;;11.80;99.90;;;10.63;100.00;101401.16;4984815;28;20610;-76
2022/04/14 01:49:49;;;;;;;52.80;26.02;;;11.80;99.90;;;10.67;100.00;101401.00;5003625;28;20139;-76
2022/04/14 01:52:15;;;;;;;43.22;24.08;;;11.80;99.90;;;10.69;100.00;101398.31;5000897;28;20391;-75
2022/04/14 01:54:42;;;;;;;49.40;25.33;;;11.90;99.90;;;10.74;100.00;101399.00;4990151;28;20030;-76
2022/04/14 01:57:08;;;;;;;43.72;23.52;;;11.90;99.90;;;10.78;100.00;101395.34;4986567;28;20390;-76
2022/04/14 01:59:34;;;;;;;46.30;24.17;;;12.00;99.90;;;10.82;100.00;101389.03;4989433;28;20052;-76
2022/04/14 02:02:00;;;;;;;48.67;25.70;;;12.00;99.90;;;10.87;100.00;101395.00;4998896;28;20044;-76
2022/04/14 02:04:25;;;;;;;44.13;23.00;;;12.00;99.90;;;10.88;100.00;101407.25;5002117;28;20088;-76
2022/04/14 02:06:51;;;;;;;55.80;27.30;;;12.00;99.90;;;10.88;100.00;101419.56;4980335;28;20034;-76
2022/04/14 02:09:17;;;;;;;48.97;26.13;;;12.00;99.90;;;10.91;100.00;101402.75;4989215;28;20514;-77
2022/04/14 02:11:43;;;;;;;50.85;27.08;;;12.00;99.90;;;10.92;100.00;101402.72;5001053;28;20163;-77
2022/04/14 02:14:10;;;;;;;57.65;27.92;;;12.10;99.90;;;10.93;100.00;101393.91;5002640;28;20036;-76
2022/04/14 02:16:36;;;;;;;57.83;27.52;;;12.10;99.90;;;10.95;100.00;101375.38;4990663;28;20116;-77
2022/04/14 02:19:02;;;;;;;50.63;25.85;;;12.00;99.90;;;10.80;100.00;101375.06;4985199;28;20026;-76
2022/04/14 02:21:27;;;;;;;47.40;23.98;;;12.00;99.90;;;10.87;100.00;101387.09;4990265;28;20033;-77
2022/04/14 02:23:53;;;;;;;41.55;23.13;;;12.00;99.90;;;10.84;100.00;101400.38;4980274;28;20026;-76
2022/04/14 02:26:19;;;;;;;41.97;21.55;;;12.00;99.90;;;10.85;100.00;101415.25;5001234;28;20092;-77
2022/04/14 02:28:45;;;;;;;43.33;22.27;;;12.00;99.90;;;10.82;100.00;101420.66;4984200;28;20102;-76
2022/04/14 02:31:11;;;;;;;42.08;23.58;;;12.00;99.90;;;10.80;100.00;101411.09;4981656;28;20026;-77
2022/04/14 02:33:37;;;;;;;50.22;26.38;;;12.00;99.90;;;10.81;100.00;101421.56;4981066;28;20056;-77
2022/04/14 02:36:04;;;;;;;55.30;26.77;;;12.00;99.90;;;10.80;100.00;101411.94;4998591;28;20100;-76
2022/04/14 02:38:30;;;;;;;49.60;26.65;;;11.90;99.90;;;10.78;100.00;101413.78;4999207;28;20397;-76
2022/04/14 02:40:57;;;;;;;53.92;27.85;;;11.90;99.90;;;10.76;100.00;101420.03;4983371;28;20025;-77
2022/04/14 02:43:24;;;;;;;57.92;27.98;;;11.90;99.90;;;10.73;100.00;101422.75;5001433;28;20497;-76
2022/04/14 02:45:49;;;;;;;50.25;27.27;;;11.90;99.90;;;10.68;100.00;101421.13;4998897;28;20181;-76
2022/04/14 02:48:15;;;;;;;51.63;27.10;;;11.90;99.90;;;10.68;100.00;101422.91;4982384;28;20782;-77
2022/04/14 02:50:43;;;;;;;51.47;27.67;;;11.80;99.90;;;10.69;100.00;101424.66;4991197;28;20129;-76
2022/04/14 02:53:10;;;;;;;58.55;27.85;;;11.80;99.90;;;10.71;100.00;101427.22;4998639;28;20060;-76
2022/04/14 02:55:36;;;;;;;53.42;28.17;;;11.90;99.90;;;10.77;100.00;101433.13;4972322;28;20033;-77
2022/04/14 02:58:03;;;;;;;60.03;28.92;;;11.90;99.90;;;10.83;100.00;101422.38;5000916;28;20211;-76
2022/04/14 03:00:30;;;;;;;61.58;27.52;;;11.90;99.90;;;10.90;100.00;101416.88;4981679;28;20037;-76
2022/04/14 03:02:57;;;;;;;51.33;26.45;;;12.00;99.90;;;10.93;100.00;101406.22;4983255;28;20026;-76
2022/04/14 03:05:23;;;;;;;53.40;26.90;;;12.00;99.90;;;10.96;100.00;101414.00;5000686;28;20073;-77
2022/04/14 03:07:49;;;;;;;48.33;25.75;;;12.00;99.90;;;11.01;100.00;101414.69;4981239;28;20512;-76
2022/04/14 03:10:15;;;;;;;57.22;27.63;;;12.10;99.90;;;11.03;100.00;101421.63;5001014;28;20057;-76
2022/04/14 03:12:51;;;;;;;50.67;25.15;;;12.00;99.90;;;10.97;100.00;101428.91;4997289;28;20022;-77
2022/04/14 03:15:20;;;;;;;53.53;25.58;;;12.00;99.90;;;10.97;100.00;101439.44;4990866;28;20545;-77
2022/04/14 03:17:49;;;;;;;47.95;23.55;;;12.00;99.90;;;10.85;100.00;101431.06;4958979;28;20042;-77
2022/04/14 03:20:15;;;;;;;45.90;24.63;;;12.00;99.90;;;10.78;100.00;101412.94;4983422;28;20022;-76
2022/04/14 03:22:42;;;;;;;48.60;25.10;;;11.90;99.90;;;10.73;100.00;101410.44;4957506;28;20048;-75
2022/04/14 03:25:11;;;;;;;56.63;26.30;;;11.90;99.90;;;10.69;100.00;101419.38;4983828;28;20119;-75
2022/04/14 03:27:37;;;;;;;69.10;28.35;;;11.90;99.90;;;10.71;100.00;101407.00;4986100;28;20037;-75
2022/04/14 03:30:10;;;;;;;56.50;27.17;;;11.80;99.90;;;10.66;100.00;101391.38;4976275;28;20038;-75
2022/04/14 03:32:46;;;;;;;64.55;27.95;;;11.80;99.90;;;10.65;100.00;101383.53;4981446;28;20037;-75
2022/04/14 03:35:14;;;;;;;64.75;29.60;;;11.80;99.90;;;10.64;100.00;101374.75;4983227;28;20037;-75
2022/04/14 03:37:42;;;;;;;70.13;31.33;;;11.80;99.90;;;10.62;100.00;101376.59;4999917;28;20041;-77
2022/04/14 03:40:10;;;;;;;65.75;29.05;;;11.80;99.90;;;10.71;100.00;101385.91;4981934;28;21561;-77
2022/04/14 03:42:37;;;;;;;70.53;30.50;;;11.80;99.90;;;10.73;100.00;101373.56;4983388;28;20037;-76
2022/04/14 03:45:07;;;;;;;73.22;29.90;;;11.80;99.90;;;10.67;100.00;101353.59;4972784;28;20041;-77
2022/04/14 03:47:36;;;;;;;69.93;29.17;;;11.80;99.90;;;10.56;100.00;101352.25;4952320;28;20045;-77
2022/04/14 03:50:04;;;;;;;61.50;29.17;;;11.80;99.90;;;10.64;100.00;101366.00;4964808;28;20053;-77
2022/04/14 03:52:30;;;;;;;55.58;27.75;;;11.80;99.90;;;10.70;100.00;101376.31;4999085;28;20049;-76
2022/04/14 03:54:57;;;;;;;56.50;26.52;;;11.80;99.90;;;10.74;100.00;101384.97;4983009;28;20036;-77
2022/04/14 03:57:24;;;;;;;56.35;26.10;;;11.80;99.90;;;10.76;100.00;101394.53;5000396;28;20740;-77
2022/04/14 03:59:50;;;;;;;60.78;26.13;;;11.80;99.90;;;10.75;100.00;101398.06;4992604;28;21095;-76
2022/04/14 04:02:16;;;;;;;84.63;30.90;;;11.80;99.90;;;10.74;100.00;101391.09;5000957;28;20029;-76
2022/04/14 04:04:43;;;;;;;73.38;30.35;;;11.80;99.90;;;10.75;100.00;101400.69;4988154;28;20032;-76
2022/04/14 04:15:40;;;;;;;71.35;30.45;;;11.80;99.90;;;10.65;100.00;101380.91;5007056;28;20127;-76
2022/04/14 04:18:07;;;;;;;79.70;32.22;;;11.70;99.90;;;10.58;100.00;101375.00;4986654;28;20433;-75
2022/04/14 04:20:34;;;;;;;75.60;30.85;;;11.70;99.90;;;10.52;100.00;101379.59;5000507;28;20033;-76
2022/04/14 04:23:03;;;;;;;78.43;33.22;;;11.70;99.90;;;10.53;100.00;101360.28;4984725;28;20038;-75
2022/04/14 04:25:29;;;;;;;79.47;33.28;;;11.60;99.90;;;10.49;100.00;101361.28;4987670;28;20474;-76
2022/04/14 04:27:55;;;;;;;73.47;33.00;;;11.60;99.90;;;10.53;100.00;101366.41;5001209;28;20084;-76
2022/04/14 04:30:21;;;;;;;74.60;32.65;;;11.60;99.90;;;10.58;100.00;101379.38;4990117;28;20044;-76
2022/04/14 04:32:46;;;;;;;70.40;33.00;;;11.70;99.90;;;10.60;100.00;101375.78;5002759;28;20101;-77
2022/04/14 04:35:13;;;;;;;89.88;31.63;;;11.70;99.90;;;10.62;100.00;101383.63;4967763;28;20045;-77
2022/04/14 04:37:39;;;;;;;74.50;30.00;;;11.70;99.90;;;10.52;100.00;101380.50;4986531;28;21898;-77
2022/04/14 04:40:06;;;;;;;72.78;30.85;;;11.60;99.90;;;10.50;100.00;101374.41;4999166;28;20109;-77
2022/04/14 04:42:31;;;;;;;83.85;32.38;;;11.60;99.90;;;10.46;100.00;101384.19;4986633;28;20029;-76
2022/04/14 04:44:57;;;;;;;80.45;35.95;;;11.60;99.90;;;10.40;100.00;101381.75;4986010;28;20044;-78
2022/04/14 04:47:23;;;;;;;83.60;35.03;;;11.50;99.90;;;10.36;100.00;101384.56;4964424;28;20045;-78
2022/04/14 04:49:49;;;;;;;84.53;33.28;;;11.50;99.90;;;10.29;100.00;101378.66;4977322;28;20382;-78
2022/04/14 04:52:16;;;;;;;94.55;35.00;;;11.50;99.90;;;10.32;100.00;101377.69;4992503;28;20041;-77
2022/04/14 04:54:41;;;;;;;90.75;35.88;;;11.50;99.90;;;10.36;100.00;101361.72;4984753;28;20030;-76
2022/04/14 04:57:07;;;;;;;92.50;34.70;;;11.50;99.90;;;10.39;100.00;101359.00;4984267;28;20052;-77
2022/04/14 04:59:33;;;;;;;80.32;33.00;;;11.50;99.90;;;10.42;100.00;101376.47;4983756;28;21934;-76
2022/04/14 05:02:00;;;;;;;79.82;34.47;;;11.50;99.90;;;10.47;100.00;101382.41;5003789;28;20036;-77
2022/04/14 05:04:26;;;;;;;84.03;35.30;;;11.50;99.90;;;10.51;100.00;101386.66;4985447;28;20152;-78
2022/04/14 05:06:52;;;;;;;86.65;34.05;;;11.60;99.90;;;10.54;100.00;101386.56;4970037;28;20014;-78
2022/04/14 05:09:18;;;;;;;87.90;34.00;;;11.70;99.90;;;10.57;100.00;101390.84;5001895;28;20029;-77
2022/04/14 05:11:44;;;;;;;76.80;32.92;;;11.60;99.90;;;10.60;100.00;101382.81;5002317;28;20038;-77
2022/04/14 05:14:10;;;;;;;78.55;33.78;;;11.70;99.90;;;10.63;100.00;101393.28;4975298;28;20099;-77
2022/04/14 05:16:36;;;;;;;77.80;31.92;;;11.70;99.90;;;10.64;100.00;101401.09;5000798;28;20084;-78
2022/04/14 05:19:03;;;;;;;85.45;33.13;;;11.70;99.90;;;10.63;100.00;101401.16;4992383;28;20021;-78
2022/04/14 05:21:29;;;;;;;84.57;30.40;;;11.70;99.90;;;10.58;100.00;101396.06;4992074;28;20018;-78
2022/04/14 05:23:54;;;;;;;85.38;30.10;;;11.70;99.90;;;10.55;100.00;101400.56;4985343;28;20390;-77
2022/04/14 05:26:20;;;;;;;80.78;31.75;;;11.60;99.90;;;10.55;100.00;101398.78;4984595;28;20033;-79
2022/04/14 05:28:46;;;;;;;83.78;31.27;;;11.60;99.90;;;10.55;100.00;101403.22;4990249;28;20045;-78
2022/04/14 05:31:12;;;;;;;83.50;31.58;;;11.60;99.90;;;10.53;100.00;101402.41;4989276;28;20495;-78
2022/04/14 05:33:38;;;;;;;79.50;30.70;;;11.60;99.90;;;10.54;100.00;101398.84;4983138;28;20030;-79
2022/04/14 05:36:04;;;;;;;77.43;31.00;;;11.60;99.90;;;10.58;100.00;101406.59;4974123;28;20084;-78
2022/04/14 05:38:33;;;;;;;89.72;33.13;;;11.70;99.90;;;10.59;100.00;101400.41;4947592;28;20478;-79
2022/04/14 05:40:59;;;;;;;83.75;30.13;;;11.70;99.90;;;10.61;100.00;101395.09;4925195;28;20063;-78
2022/04/14 05:43:27;;;;;;;94.38;33.67;;;11.70;99.90;;;10.58;100.00;101398.72;4953821;28;20417;-78
2022/04/14 05:45:55;;;;;;;82.68;31.80;;;11.70;99.90;;;10.53;100.00;101400.63;4984170;28;20061;-78
2022/04/14 05:48:24;;;;;;;96.05;35.42;;;11.60;99.90;;;10.46;100.00;101384.19;5003067;28;20041;-78
2022/04/14 05:50:50;;;;;;;109.45;40.05;;;11.60;99.90;;;10.43;100.00;101394.84;4976468;28;20034;-77
2022/04/14 05:53:27;;;;;;;110.13;38.83;;;11.60;99.90;;;10.45;100.00;101386.88;5000433;28;20113;-78
2022/04/14 05:55:55;;;;;;;117.32;42.15;;;11.60;99.90;;;10.50;100.00;101381.47;4973700;28;20133;-78
2022/04/14 05:58:21;;;;;;;106.30;41.05;;;11.60;99.90;;;10.54;100.00;101386.56;5011908;28;20118;-78
2022/04/14 06:00:48;;;;;;;114.85;42.08;;;11.60;99.90;;;10.60;100.00;101396.84;4991542;28;20034;-78
2022/04/14 06:03:16;;;;;;;127.35;43.10;;;11.70;99.90;;;10.62;100.00;101402.06;4999689;28;20063;-76
2022/04/14 06:05:43;;;;;;;109.05;41.05;;;11.70;99.90;;;10.64;100.00;101405.50;4983898;28;20022;-78
2022/04/14 06:08:08;;;;;;;120.45;41.85;;;11.70;99.90;;;10.65;100.00;101420.41;4985231;28;20040;-77
2022/04/14 06:10:35;;;;;;;112.65;40.30;;;11.70;99.90;;;10.67;100.00;101434.38;4986315;28;20120;-76
2022/04/14 06:13:01;;;;;;;107.65;40.13;;;11.70;99.90;;;10.69;100.00;101435.19;4986633;28;20033;-79
2022/04/14 06:15:27;;;;;;;112.70;40.67;;;11.80;99.90;;;10.73;100.00;101425.38;4979826;28;20034;-79
2022/04/14 06:17:53;;;;;;;112.13;39.97;;;11.80;99.90;;;10.77;100.00;101425.22;4927866;28;20026;-79
2022/04/14 06:20:21;;;;;;;121.50;41.65;;;11.80;99.90;;;10.75;100.00;101424.41;4973076;28;20040;-79
2022/04/14 06:22:50;;;;;;;120.85;43.40;;;11.90;99.90;;;10.80;100.00;101433.03;4938019;28;20018;-78
2022/04/14 06:25:22;;;;;;;116.15;41.38;;;11.90;99.90;;;10.84;100.00;101439.91;4902480;28;20265;-78
2022/04/14 06:27:53;;;;;;;131.77;43.47;;;11.90;99.90;;;10.83;100.00;101430.25;4935052;28;20449;-79
2022/04/14 06:30:20;;;;;;;130.57;42.40;;;11.90;99.90;;;10.83;100.00;101446.06;4938982;28;20541;-79
2022/04/14 06:33:00;;;;;;;136.63;45.33;;;11.90;99.90;;;10.82;100.00;101465.44;4913903;28;20085;-78
2022/04/14 06:35:27;;;;;;;142.73;46.47;;;11.90;99.90;;;10.82;100.00;101451.38;4973835;28;20033;-77
2022/04/14 06:37:54;;;;;;;153.63;49.03;;;11.90;99.90;;;10.83;100.00;101437.31;4958070;28;20038;-78
2022/04/14 06:40:25;;;;;;;138.63;46.95;;;11.90;99.90;;;10.86;100.00;101443.34;4954776;28;20037;-80
2022/04/14 06:42:51;;;;;;;137.57;44.20;;;11.90;99.90;;;10.90;100.00;101441.44;4923939;28;20035;-79
2022/04/14 06:45:17;;;;;;;143.80;44.42;;;12.00;99.90;;;10.95;100.00;101434.25;4909530;28;20022;-80
2022/04/14 06:47:43;;;;;;;178.90;45.90;;;12.00;99.90;;;11.02;100.00;101438.34;4923280;28;20571;-78
2022/04/14 06:50:09;;;;;;;140.15;43.88;;;12.10;99.90;;;11.05;100.00;101427.69;4949976;28;20125;-80
2022/04/14 06:52:40;;;;;;;99.82;38.70;;;12.10;99.90;;;11.10;100.00;101430.19;4978159;28;20037;-79
2022/04/14 06:55:08;;;;;;;129.88;41.08;;;12.10;99.90;;;11.13;100.00;101430.06;4911312;28;20410;-78
2022/04/14 06:57:35;;;;;;;115.82;41.58;;;12.10;99.90;;;11.16;100.00;101414.09;4926995;28;20025;-77
2022/04/14 07:00:03;;;;;;;119.15;41.42;;;12.20;99.90;;;11.19;100.00;101421.91;4922672;28;20512;-80
2022/04/14 07:02:31;;;;;;;121.10;41.15;;;12.20;99.90;;;11.19;100.00;101418.44;4938928;28;20033;-79
2022/04/14 07:05:02;;;;;;;107.45;40.05;;;12.30;99.90;;;11.26;100.00;101417.28;4907631;28;20025;-80
2022/04/14 07:07:35;;;;;;;110.30;39.88;;;12.30;99.90;;;11.31;100.00;101411.81;4899971;28;20033;-80
2022/04/14 07:10:01;;;;;;;120.95;41.92;;;12.30;99.90;;;11.38;100.00;101430.00;4896068;28;20454;-80
2022/04/14 07:12:27;;;;;;;113.07;39.38;;;12.40;99.90;;;11.47;100.00;101447.22;4921179;28;20034;-80
2022/04/14 07:14:53;;;;;;;109.85;37.80;;;12.40;99.90;;;11.55;100.00;101453.03;4933014;28;20044;-79
2022/04/14 07:17:20;;;;;;;95.38;37.05;;;12.50;99.90;;;11.61;100.00;101450.16;4911365;28;20417;-80
2022/04/14 07:19:51;;;;;;;88.82;34.97;;;12.60;99.90;;;11.69;100.00;101450.72;4889007;28;20049;-78
2022/04/14 07:22:18;;;;;;;84.43;33.08;;;12.60;99.90;;;11.78;100.00;101457.41;4896596;28;20035;-80
2022/04/14 07:24:49;;;;;;;84.55;33.83;;;;;;;11.85;100.00;101464.16;4905774;28;20022;-78
2022/04/14 07:27:24;;;;;;;84.60;32.63;;;12.80;99.90;;;11.91;100.00;101449.91;4917494;28;20037;-80
2022/04/14 07:29:50;;;;;;;70.07;31.30;;;12.80;99.90;;;11.98;100.00;101456.63;4876987;28;20090;-79
2022/04/14 07:32:16;;;;;;;73.50;29.92;;;12.90;99.90;;;12.01;100.00;101461.81;4940474;28;20046;-79
2022/04/14 07:34:42;;;;;;;75.05;29.55;;;12.90;99.90;;;12.03;100.00;101452.03;4886257;28;20074;-79
2022/04/14 07:37:15;;;;;;;69.25;29.48;;;13.00;99.90;;;12.04;100.00;101445.84;4902216;28;20372;-79
2022/04/14 07:39:41;;;;;;;68.70;29.17;;;13.00;99.90;;;12.07;100.00;101445.72;4918411;28;20098;-82
2022/04/14 07:42:07;;;;;;;66.90;28.90;;;13.00;99.90;;;12.05;100.00;101446.69;4909028;28;20125;-83
2022/04/14 07:44:33;;;;;;;76.38;30.45;;;13.10;99.90;;;12.11;100.00;101436.72;4892368;28;20035;-78
2022/04/14 07:47:08;;;;;;;67.82;28.83;;;13.10;99.90;;;12.24;100.00;101449.41;4909465;28;20470;-80
2022/04/14 07:49:33;;;;;;;71.38;28.50;;;13.20;99.90;;;12.34;100.00;101457.84;4906579;28;20053;-80
2022/04/14 07:52:00;;;;;;;58.67;27.25;;;13.20;99.90;;;12.46;100.00;101457.28;4888721;28;20045;-81
2022/04/14 07:54:34;;;;;;;58.22;27.33;;;13.30;99.90;;;12.48;100.00;101456.31;4888628;28;20045;-79
2022/04/14 07:57:01;;;;;;;59.13;25.80;;;12.50;99.90;;;12.61;100.00;101458.41;4931975;28;20161;-80
2022/04/14 07:59:26;;;;;;;54.65;25.02;;;13.50;99.90;;;12.70;100.00;101455.41;4933836;28;20037;-78
2022/04/14 08:01:52;;;;;;;46.35;22.33;;;13.60;99.90;;;12.65;100.00;101449.44;4911287;28;20037;-79
2022/04/14 08:04:30;;;;;;;45.90;22.80;;;13.60;99.90;;;12.67;100.00;101455.50;4941346;28;20079;-80
2022/04/14 08:06:56;;;;;;;50.72;23.85;;;13.60;99.90;;;12.58;100.00;101458.56;4941422;28;20017;-79
2022/04/14 08:09:31;;;;;;;48.53;23.00;;;13.60;99.90;;;12.56;100.00;101450.69;4985440;28;20037;-79
2022/04/14 08:11:56;;;;;;;46.25;20.80;;;13.50;99.90;;;12.57;100.00;101451.53;4914785;28;20049;-78
2022/04/14 08:14:22;;;;;;;41.13;20.77;;;13.60;99.90;;;12.61;100.00;101445.22;4917000;28;20116;-79
2022/04/14 08:16:48;;;;;;;44.08;22.00;;;13.60;99.90;;;12.65;100.00;101449.44;4938365;28;20077;-80
2022/04/14 08:19:16;;;;;;;47.08;22.08;;;13.60;99.90;;;12.81;100.00;101457.56;4929578;28;22729;-79
2022/04/14 08:21:46;;;;;;;43.60;21.60;;;13.70;99.90;;;12.87;100.00;101462.56;4923294;28;20068;-79
2022/04/14 08:24:12;;;;;;;38.92;20.80;;;13.80;99.90;;;12.91;100.00;101457.09;4934557;28;20026;-80
2022/04/14 08:26:37;;;;;;;39.58;18.80;;;13.80;99.90;;;12.92;100.00;101457.94;4906459;28;20042;-81
2022/04/14 08:29:03;;;;;;;43.65;19.05;;;13.80;99.90;;;12.92;100.00;101465.88;4906088;28;20030;-81
2022/04/14 08:31:29;;;;;;;35.17;17.83;;;13.90;99.90;;;13.00;100.00;101463.75;4963598;28;20042;-81
2022/04/14 08:34:04;;;;;;;35.35;17.48;;;13.90;99.90;;;13.06;100.00;101467.88;4895836;28;20030;-79
2022/04/14 08:36:30;;;;;;;30.83;16.88;;;14.00;99.90;;;13.04;100.00;101472.38;4914193;28;20066;-81
2022/04/14 08:38:57;;;;;;;35.85;16.70;;;14.00;99.90;;;13.07;100.00;101474.91;4917306;28;20034;-79
2022/04/14 08:41:33;;;;;;;32.33;16.23;;;14.00;99.90;;;13.12;100.00;101486.13;4878176;28;20033;-79
2022/04/14 08:44:10;;;;;;;29.13;14.95;;;14.00;99.90;;;13.11;100.00;101489.69;4899846;28;20072;-81
2022/04/14 08:46:39;;;;;;;32.70;15.15;;;14.10;99.90;;;13.17;100.00;101476.19;4907019;28;20106;-79
2022/04/14 08:49:10;;;;;;;30.25;15.13;;;14.20;99.90;;;13.30;100.00;101484.44;4882914;28;20025;-79
2022/04/14 08:51:38;;;;;;;24.95;14.32;;;14.20;99.90;;;13.41;100.00;101487.47;4926767;28;20030;-79
2022/04/14 08:54:06;;;;;;;26.67;13.18;;;14.30;99.90;;;13.60;100.00;101484.81;4882854;28;20029;-80
2022/04/14 08:56:41;;;;;;;20.83;11.60;;;14.40;99.90;;;13.78;100.00;101472.50;4910171;28;20045;-80
2022/04/14 08:59:10;;;;;;;22.55;11.38;;;14.60;99.90;;;14.01;100.00;101478.47;4882317;28;20028;-82
2022/04/14 09:01:44;;;;;;;20.48;10.55;;;14.70;99.90;;;14.05;100.00;101474.72;4915002;28;20044;-81
2022/04/14 09:04:11;;;;;;;20.75;10.43;;;14.80;99.90;;;14.20;100.00;101473.97;4930410;28;20715;-81
2022/04/14 09:06:37;;;;;;;22.23;9.73;;;15.00;99.90;;;14.30;100.00;101477.03;4905721;28;20049;-81
2022/04/14 09:09:03;;;;;;;17.02;10.20;;;15.10;99.90;;;14.42;99.85;101486.97;4914823;28;20367;-80
2022/04/14 09:11:30;;;;;;;21.70;9.40;;;15.20;99.90;;;14.42;99.00;101471.09;4875924;28;20045;-81
2022/04/14 09:14:05;;;;;;;16.27;8.15;;;15.20;99.90;;;14.46;98.03;101464.69;4880747;28;20499;-82
2022/04/14 09:16:32;;;;;;;19.60;7.38;;;15.30;99.90;;;14.53;97.29;101471.38;4894601;28;20042;-81
2022/04/14 09:19:03;;;;;;;15.43;7.80;;;15.40;99.90;;;14.76;96.94;101474.69;4929482;28;20023;-81
2022/04/14 09:21:29;;;;;;;17.95;8.07;;;15.50;99.90;;;14.96;96.47;101479.78;4940165;28;20030;-81
2022/04/14 09:23:55;;;;;;;16.55;7.38;;;15.70;99.90;;;15.21;96.01;101478.50;4963554;28;20078;-80
2022/04/14 09:26:24;;;;;;;18.38;7.25;;;15.90;99.90;;;15.47;93.44;101484.19;4930794;28;20033;-80
2022/04/14 09:29:10;;;;;;;19.65;7.70;;;16.10;99.90;;;15.79;91.46;101485.06;4874349;28;20037;-81
2022/04/14 09:31:51;;;;;;;17.77;7.82;;;16.30;99.90;;;15.96;89.59;101489.41;4908677;28;20041;-80
2022/04/14 09:34:38;;;;;;;19.80;7.72;;;16.50;99.90;;;15.96;88.29;101497.38;4895127;28;20725;-79
2022/04/14 09:37:11;;;;;;;15.07;6.93;;;16.50;99.90;;;15.82;87.31;101498.16;4925188;28;20524;-79
2022/04/14 09:40:11;;;;;;;16.90;8.15;;;16.60;99.90;;;15.75;87.14;101495.00;4929446;28;20080;-79
2022/04/14 09:42:40;;;;;;;14.80;7.47;;;16.50;99.90;;;15.70;87.13;101486.41;4914064;28;20030;-78
2022/04/14 09:45:29;;;;;;;20.15;8.23;;;16.50;99.90;;;15.63;87.54;101492.13;4905292;28;20050;-79
2022/04/14 09:48:06;;;;;;;24.92;8.32;;;16.50;99.90;;;15.75;88.64;101496.81;4895696;28;20038;-79
2022/04/14 09:50:39;;;;;;;21.25;7.38;;;16.50;99.90;;;15.91;88.34;101494.97;4942597;28;20475;-80
2022/04/14 09:53:12;;;;;;;17.65;8.10;;;16.70;99.90;;;16.06;87.54;101487.94;4918179;28;21188;-79
2022/04/14 09:56:02;;;;;;;15.82;7.95;;;16.70;99.90;;;16.22;86.63;101492.34;4933491;28;20037;-79
2022/04/14 09:58:31;;;;;;;21.25;7.55;;;16.90;99.90;;;16.30;85.35;101498.09;4915632;28;20545;-79
2022/04/14 10:00:59;;;;;;;15.63;7.18;;;17.00;99.90;;;16.23;84.55;101496.75;4890111;28;20039;-79
2022/04/14 10:03:33;;;;;;;16.17;7.55;;;17.00;99.90;;;16.13;84.28;101493.75;4961822;28;20042;-78
2022/04/14 10:06:06;;;;;;;19.48;7.80;;;16.90;99.90;;;16.23;84.40;101502.91;4923011;28;20456;-79
2022/04/14 10:08:51;;;;;;;15.88;7.32;;;17.00;99.90;;;16.54;85.77;101509.97;4881431;28;20022;-80
2022/04/14 10:11:25;;;;;;;22.02;7.72;;;17.20;99.90;;;16.64;85.17;101512.06;4894969;28;20038;-79